sensor_id;sensor_type;location;lat;lon;timestamp;temperature;humidity
22540;DHT22;11436;50.860;4.334;2022-11-24T00:02:01;9.80;99.90
22540;DHT22;11436;50.860;4.334;2022-11-24T00:04:28;9.70;99.90
22540;DHT22;11436;50.860;4.334;2022-11-24T00:06:53;9.70;99.90
22540;DHT22;11436;50.860;4.334;2022-11-24T00:09:19;9.70;99.90
22540;DHT22;11436;50.860;4.334;2022-11-24T00:11:45;9.80;99.90
22540;DHT22;11436;50.860;4.334;2022-11-24T00:14:11;9.80;99.90
22540;DHT22;11436;50.860;4.334;2022-11-24T00:16:37;9.70;99.90
22540;DHT22;11436;50.860;4.334;2022-11-24T00:19:06;9.70;99.90
22540;DHT22;11436;50.860;4.334;2022-11-24T00:21:36;9.70;99.90
22540;DHT22;11436;50.860;4.334;2022-11-24T00:24:02;9.70;99.90
22540;DHT22;11436;50.860;4.334;2022-11-24T00:26:32;9.70;99.90
22540;DHT22;11436;50.860;4.334;2022-11-24T00:29:01;9.80;99.90
22540;DHT22;11436;50.860;4.334;2022-11-24T00:31:32;9.80;99.90
22540;DHT22;11436;50.860;4.334;2022-11-24T00:34:01;9.80;99.90
22540;DHT22;11436;50.860;4.334;2022-11-24T00:36:29;9.70;99.90
22540;DHT22;11436;50.860;4.334;2022-11-24T00:38:57;9.70;99.90
22540;DHT22;11436;50.860;4.334;2022-11-24T00:41:24;9.70;99.90
22540;DHT22;11436;50.860;4.334;2022-11-24T00:43:50;9.80;99.90
22540;DHT22;11436;50.860;4.334;2022-11-24T00:46:16;9.80;99.90
22540;DHT22;11436;50.860;4.334;2022-11-24T00:48:42;9.80;99.90
22540;DHT22;11436;50.860;4.334;2022-11-24T00:51:10;9.80;99.90
22540;DHT22;11436;50.860;4.334;2022-11-24T00:53:36;9.80;99.90
22540;DHT22;11436;50.860;4.334;2022-11-24T00:56:02;9.80;99.90
22540;DHT22;11436;50.860;4.334;2022-11-24T00:58:28;9.80;99.90
22540;DHT22;11436;50.860;4.334;2022-11-24T01:00:54;9.80;99.90
22540;DHT22;11436;50.860;4.334;2022-11-24T01:03:25;9.80;99.90
22540;DHT22;11436;50.860;4.334;2022-11-24T01:05:51;9.80;99.90
22540;DHT22;11436;50.860;4.334;2022-11-24T01:08:16;9.80;99.90
22540;DHT22;11436;50.860;4.334;2022-11-24T01:10:42;9.80;99.90
22540;DHT22;11436;50.860;4.334;2022-11-24T01:13:08;9.80;99.90
22540;DHT22;11436;50.860;4.334;2022-11-24T01:15:34;9.80;99.90
22540;DHT22;11436;50.860;4.334;2022-11-24T01:18:00;9.80;99.90
22540;DHT22;11436;50.860;4.334;2022-11-24T01:20:26;9.80;99.90
22540;DHT22;11436;50.860;4.334;2022-11-24T01:22:52;9.80;99.90
22540;DHT22;11436;50.860;4.334;2022-11-24T01:25:17;9.80;99.90
22540;DHT22;11436;50.860;4.334;2022-11-24T01:27:43;9.80;99.90
22540;DHT22;11436;50.860;4.334;2022-11-24T01:30:09;9.80;99.90
22540;DHT22;11436;50.860;4.334;2022-11-24T01:32:35;9.90;99.90
22540;DHT22;11436;50.860;4.334;2022-11-24T01:35:05;9.90;99.90
22540;DHT22;11436;50.860;4.334;2022-11-24T01:37:31;9.90;99.90
22540;DHT22;11436;50.860;4.334;2022-11-24T01:39:57;9.90;99.90
22540;DHT22;11436;50.860;4.334;2022-11-24T01:42:23;10.00;99.90
22540;DHT22;11436;50.860;4.334;2022-11-24T01:45:30;10.00;99.90
22540;DHT22;11436;50.860;4.334;2022-11-24T01:47:57;10.00;99.90
22540;DHT22;11436;50.860;4.334;2022-11-24T01:50:23;10.00;99.90
22540;DHT22;11436;50.860;4.334;2022-11-24T01:52:52;10.00;99.90
22540;DHT22;11436;50.860;4.334;2022-11-24T01:55:28;10.00;99.90
22540;DHT22;11436;50.860;4.334;2022-11-24T01:58:05;10.10;99.90
22540;DHT22;11436;50.860;4.334;2022-11-24T02:00:33;10.00;99.90
22540;DHT22;11436;50.860;4.334;2022-11-24T02:03:00;10.00;99.90
22540;DHT22;11436;50.860;4.334;2022-11-24T02:05:34;10.10;99.90
22540;DHT22;11436;50.860;4.334;2022-11-24T02:08:04;10.10;99.90
22540;DHT22;11436;50.860;4.334;2022-11-24T02:10:32;10.10;99.90
22540;DHT22;11436;50.860;4.334;2022-11-24T02:12:58;10.00;99.90
22540;DHT22;11436;50.860;4.334;2022-11-24T02:15:25;10.10;99.90
22540;DHT22;11436;50.860;4.334;2022-11-24T02:17:51;10.10;99.90
22540;DHT22;11436;50.860;4.334;2022-11-24T02:20:17;10.00;99.90
22540;DHT22;11436;50.860;4.334;2022-11-24T02:28:26;10.20;99.90
22540;DHT22;11436;50.860;4.334;2022-11-24T02:30:53;10.20;99.90
22540;DHT22;11436;50.860;4.334;2022-11-24T02:33:20;10.20;99.90
22540;DHT22;11436;50.860;4.334;2022-11-24T02:35:47;10.20;99.90
22540;DHT22;11436;50.860;4.334;2022-11-24T02:38:13;10.10;99.90
22540;DHT22;11436;50.860;4.334;2022-11-24T02:40:40;10.10;99.90
22540;DHT22;11436;50.860;4.334;2022-11-24T02:43:10;10.10;99.90
22540;DHT22;11436;50.860;4.334;2022-11-24T02:45:37;10.00;99.90
22540;DHT22;11436;50.860;4.334;2022-11-24T02:48:03;10.00;99.90
22540;DHT22;11436;50.860;4.334;2022-11-24T02:50:29;9.90;99.90
22540;DHT22;11436;50.860;4.334;2022-11-24T02:52:55;9.90;99.90
22540;DHT22;11436;50.860;4.334;2022-11-24T02:55:20;9.80;99.90
22540;DHT22;11436;50.860;4.334;2022-11-24T02:57:46;9.80;99.90
22540;DHT22;11436;50.860;4.334;2022-11-24T03:00:12;9.90;99.90
22540;DHT22;11436;50.860;4.334;2022-11-24T03:02:38;9.80;99.90
22540;DHT22;11436;50.860;4.334;2022-11-24T03:05:05;9.90;99.90
22540;DHT22;11436;50.860;4.334;2022-11-24T03:07:30;9.90;99.90
22540;DHT22;11436;50.860;4.334;2022-11-24T03:09:56;10.00;99.90
22540;DHT22;11436;50.860;4.334;2022-11-24T03:12:22;9.90;99.90
22540;DHT22;11436;50.860;4.334;2022-11-24T03:14:47;9.90;99.90
22540;DHT22;11436;50.860;4.334;2022-11-24T03:17:13;9.90;99.90
22540;DHT22;11436;50.860;4.334;2022-11-24T03:19:39;9.90;99.90
22540;DHT22;11436;50.860;4.334;2022-11-24T03:22:04;9.90;99.90
22540;DHT22;11436;50.860;4.334;2022-11-24T03:24:30;9.90;99.90
22540;DHT22;11436;50.860;4.334;2022-11-24T03:26:56;9.90;99.90
22540;DHT22;11436;50.860;4.334;2022-11-24T03:29:21;10.00;99.90
22540;DHT22;11436;50.860;4.334;2022-11-24T03:31:47;10.00;99.90
22540;DHT22;11436;50.860;4.334;2022-11-24T03:34:13;10.00;99.90
22540;DHT22;11436;50.860;4.334;2022-11-24T03:36:39;9.90;99.90
22540;DHT22;11436;50.860;4.334;2022-11-24T03:39:04;9.80;99.90
22540;DHT22;11436;50.860;4.334;2022-11-24T03:41:31;9.80;99.90
22540;DHT22;11436;50.860;4.334;2022-11-24T03:43:57;9.70;99.90
22540;DHT22;11436;50.860;4.334;2022-11-24T03:46:23;9.70;99.90
22540;DHT22;11436;50.860;4.334;2022-11-24T03:48:48;9.70;99.90
22540;DHT22;11436;50.860;4.334;2022-11-24T03:51:14;9.70;99.90
22540;DHT22;11436;50.860;4.334;2022-11-24T03:53:40;9.70;99.90
22540;DHT22;11436;50.860;4.334;2022-11-24T03:56:06;9.70;99.90
22540;DHT22;11436;50.860;4.334;2022-11-24T03:58:32;9.60;99.90
22540;DHT22;11436;50.860;4.334;2022-11-24T04:00:58;9.60;99.90
22540;DHT22;11436;50.860;4.334;2022-11-24T04:03:24;9.60;99.90
22540;DHT22;11436;50.860;4.334;2022-11-24T04:05:50;9.60;99.90
22540;DHT22;11436;50.860;4.334;2022-11-24T04:08:17;9.60;99.90
22540;DHT22;11436;50.860;4.334;2022-11-24T04:10:43;9.50;99.90
22540;DHT22;11436;50.860;4.334;2022-11-24T04:13:16;9.50;99.90
22540;DHT22;11436;50.860;4.334;2022-11-24T04:15:42;9.40;99.90
22540;DHT22;11436;50.860;4.334;2022-11-24T04:18:09;9.40;99.90
22540;DHT22;11436;50.860;4.334;2022-11-24T04:20:35;9.40;99.90
22540;DHT22;11436;50.860;4.334;2022-11-24T04:23:01;9.30;99.90
22540;DHT22;11436;50.860;4.334;2022-11-24T04:25:27;9.30;99.90
22540;DHT22;11436;50.860;4.334;2022-11-24T04:27:54;9.20;99.90
22540;DHT22;11436;50.860;4.334;2022-11-24T04:30:21;9.20;99.90
22540;DHT22;11436;50.860;4.334;2022-11-24T04:32:47;9.20;99.90
22540;DHT22;11436;50.860;4.334;2022-11-24T04:35:13;9.20;99.90
22540;DHT22;11436;50.860;4.334;2022-11-24T04:37:39;9.20;99.90
22540;DHT22;11436;50.860;4.334;2022-11-24T04:40:06;9.20;99.90
22540;DHT22;11436;50.860;4.334;2022-11-24T04:42:32;9.20;99.90
22540;DHT22;11436;50.860;4.334;2022-11-24T04:44:58;9.10;99.90
22540;DHT22;11436;50.860;4.334;2022-11-24T04:47:25;9.10;99.90
22540;DHT22;11436;50.860;4.334;2022-11-24T04:49:51;9.10;99.90
22540;DHT22;11436;50.860;4.334;2022-11-24T04:52:19;9.00;99.90
22540;DHT22;11436;50.860;4.334;2022-11-24T04:54:45;9.00;99.90
22540;DHT22;11436;50.860;4.334;2022-11-24T04:59:41;9.00;99.90
22540;DHT22;11436;50.860;4.334;2022-11-24T05:02:07;9.00;99.90
22540;DHT22;11436;50.860;4.334;2022-11-24T05:04:33;8.90;99.90
22540;DHT22;11436;50.860;4.334;2022-11-24T05:06:59;8.90;99.90
22540;DHT22;11436;50.860;4.334;2022-11-24T05:09:25;8.90;99.90
22540;DHT22;11436;50.860;4.334;2022-11-24T05:11:51;8.90;99.90
22540;DHT22;11436;50.860;4.334;2022-11-24T05:14:16;8.90;99.90
22540;DHT22;11436;50.860;4.334;2022-11-24T05:16:42;8.90;99.90
22540;DHT22;11436;50.860;4.334;2022-11-24T05:19:08;8.90;99.90
22540;DHT22;11436;50.860;4.334;2022-11-24T05:21:34;8.80;99.90
22540;DHT22;11436;50.860;4.334;2022-11-24T05:23:59;8.80;99.90
22540;DHT22;11436;50.860;4.334;2022-11-24T05:26:26;8.80;99.90
22540;DHT22;11436;50.860;4.334;2022-11-24T05:28:52;8.80;99.90
22540;DHT22;11436;50.860;4.334;2022-11-24T05:31:18;8.80;99.90
22540;DHT22;11436;50.860;4.334;2022-11-24T05:33:44;8.80;99.90
22540;DHT22;11436;50.860;4.334;2022-11-24T05:36:10;8.70;99.90
22540;DHT22;11436;50.860;4.334;2022-11-24T05:38:59;8.70;99.90
22540;DHT22;11436;50.860;4.334;2022-11-24T05:41:25;8.70;99.90
22540;DHT22;11436;50.860;4.334;2022-11-24T05:43:51;8.70;99.90
22540;DHT22;11436;50.860;4.334;2022-11-24T05:46:17;8.70;99.90
22540;DHT22;11436;50.860;4.334;2022-11-24T05:48:43;8.60;99.90
22540;DHT22;11436;50.860;4.334;2022-11-24T05:51:08;8.70;99.90
22540;DHT22;11436;50.860;4.334;2022-11-24T05:53:34;8.70;99.90
22540;DHT22;11436;50.860;4.334;2022-11-24T05:56:04;8.70;99.90
22540;DHT22;11436;50.860;4.334;2022-11-24T05:58:30;8.80;99.90
22540;DHT22;11436;50.860;4.334;2022-11-24T06:00:55;8.80;99.90
22540;DHT22;11436;50.860;4.334;2022-11-24T06:03:21;8.80;99.90
22540;DHT22;11436;50.860;4.334;2022-11-24T06:05:47;8.80;99.90
22540;DHT22;11436;50.860;4.334;2022-11-24T06:08:13;8.70;99.90
22540;DHT22;11436;50.860;4.334;2022-11-24T06:10:39;8.70;99.90
22540;DHT22;11436;50.860;4.334;2022-11-24T06:13:06;8.60;99.90
22540;DHT22;11436;50.860;4.334;2022-11-24T06:15:33;8.60;99.90
22540;DHT22;11436;50.860;4.334;2022-11-24T06:17:58;8.60;99.90
22540;DHT22;11436;50.860;4.334;2022-11-24T06:20:24;8.60;99.90
22540;DHT22;11436;50.860;4.334;2022-11-24T06:22:50;8.70;99.90
22540;DHT22;11436;50.860;4.334;2022-11-24T06:25:16;8.60;99.90
22540;DHT22;11436;50.860;4.334;2022-11-24T06:27:43;8.60;99.90
22540;DHT22;11436;50.860;4.334;2022-11-24T06:30:09;8.50;99.90
22540;DHT22;11436;50.860;4.334;2022-11-24T06:32:35;8.50;99.90
22540;DHT22;11436;50.860;4.334;2022-11-24T06:35:01;8.50;99.90
22540;DHT22;11436;50.860;4.334;2022-11-24T06:37:27;8.50;99.90
22540;DHT22;11436;50.860;4.334;2022-11-24T06:39:53;8.50;99.90
22540;DHT22;11436;50.860;4.334;2022-11-24T06:42:18;8.50;99.90
22540;DHT22;11436;50.860;4.334;2022-11-24T06:44:46;8.50;99.90
22540;DHT22;11436;50.860;4.334;2022-11-24T06:47:14;8.50;99.90
22540;DHT22;11436;50.860;4.334;2022-11-24T06:49:40;8.50;99.90
22540;DHT22;11436;50.860;4.334;2022-11-24T06:52:06;8.40;99.90
22540;DHT22;11436;50.860;4.334;2022-11-24T06:54:32;8.40;99.90
22540;DHT22;11436;50.860;4.334;2022-11-24T06:56:58;8.40;99.90
22540;DHT22;11436;50.860;4.334;2022-11-24T06:59:24;8.40;99.90
22540;DHT22;11436;50.860;4.334;2022-11-24T07:01:51;8.40;99.90
22540;DHT22;11436;50.860;4.334;2022-11-24T07:04:17;8.40;99.90
22540;DHT22;11436;50.860;4.334;2022-11-24T07:06:43;8.40;99.90
22540;DHT22;11436;50.860;4.334;2022-11-24T07:09:10;8.30;99.90
22540;DHT22;11436;50.860;4.334;2022-11-24T07:11:37;8.40;99.90
22540;DHT22;11436;50.860;4.334;2022-11-24T07:14:04;8.30;99.90
22540;DHT22;11436;50.860;4.334;2022-11-24T07:16:30;8.40;99.90
22540;DHT22;11436;50.860;4.334;2022-11-24T07:18:56;8.30;99.90
22540;DHT22;11436;50.860;4.334;2022-11-24T07:21:23;8.30;99.90
22540;DHT22;11436;50.860;4.334;2022-11-24T07:23:51;8.30;99.90
22540;DHT22;11436;50.860;4.334;2022-11-24T07:26:17;8.30;99.90
22540;DHT22;11436;50.860;4.334;2022-11-24T07:28:44;8.30;99.90
22540;DHT22;11436;50.860;4.334;2022-11-24T07:31:12;8.30;99.90
22540;DHT22;11436;50.860;4.334;2022-11-24T07:33:39;8.20;99.90
22540;DHT22;11436;50.860;4.334;2022-11-24T07:36:07;8.20;99.90
22540;DHT22;11436;50.860;4.334;2022-11-24T07:38:34;8.10;99.90
22540;DHT22;11436;50.860;4.334;2022-11-24T07:41:01;8.20;99.90
22540;DHT22;11436;50.860;4.334;2022-11-24T07:43:29;8.20;99.90
22540;DHT22;11436;50.860;4.334;2022-11-24T07:45:55;8.30;99.90
22540;DHT22;11436;50.860;4.334;2022-11-24T07:48:21;8.30;99.90
22540;DHT22;11436;50.860;4.334;2022-11-24T07:50:48;8.20;99.90
22540;DHT22;11436;50.860;4.334;2022-11-24T07:53:13;8.20;99.90
22540;DHT22;11436;50.860;4.334;2022-11-24T07:55:39;8.30;99.90
22540;DHT22;11436;50.860;4.334;2022-11-24T07:58:05;8.30;99.90
22540;DHT22;11436;50.860;4.334;2022-11-24T08:00:31;8.30;99.90
22540;DHT22;11436;50.860;4.334;2022-11-24T08:02:56;8.30;99.90
22540;DHT22;11436;50.860;4.334;2022-11-24T08:05:22;8.30;99.90
22540;DHT22;11436;50.860;4.334;2022-11-24T08:07:48;8.30;99.90
22540;DHT22;11436;50.860;4.334;2022-11-24T08:10:14;8.30;99.90
22540;DHT22;11436;50.860;4.334;2022-11-24T08:12:40;8.40;99.90
22540;DHT22;11436;50.860;4.334;2022-11-24T08:15:06;8.40;99.90
22540;DHT22;11436;50.860;4.334;2022-11-24T08:17:33;8.40;99.90
22540;DHT22;11436;50.860;4.334;2022-11-24T08:19:59;8.40;99.90
22540;DHT22;11436;50.860;4.334;2022-11-24T08:22:24;8.40;99.90
22540;DHT22;11436;50.860;4.334;2022-11-24T08:24:50;8.40;99.90
22540;DHT22;11436;50.860;4.334;2022-11-24T08:27:17;8.40;99.90
22540;DHT22;11436;50.860;4.334;2022-11-24T08:29:43;8.40;99.90
22540;DHT22;11436;50.860;4.334;2022-11-24T08:32:11;8.50;99.90
22540;DHT22;11436;50.860;4.334;2022-11-24T08:34:37;8.50;99.90
22540;DHT22;11436;50.860;4.334;2022-11-24T08:37:03;8.60;99.90
22540;DHT22;11436;50.860;4.334;2022-11-24T08:39:30;8.60;99.90
22540;DHT22;11436;50.860;4.334;2022-11-24T08:41:56;8.70;99.90
22540;DHT22;11436;50.860;4.334;2022-11-24T08:44:21;8.70;99.90
22540;DHT22;11436;50.860;4.334;2022-11-24T08:46:47;8.80;99.90
22540;DHT22;11436;50.860;4.334;2022-11-24T08:49:14;8.80;99.90
22540;DHT22;11436;50.860;4.334;2022-11-24T08:51:41;8.80;99.90
22540;DHT22;11436;50.860;4.334;2022-11-24T08:54:07;8.90;99.90
22540;DHT22;11436;50.860;4.334;2022-11-24T08:56:34;8.90;99.90
22540;DHT22;11436;50.860;4.334;2022-11-24T08:59:01;8.90;99.90
22540;DHT22;11436;50.860;4.334;2022-11-24T09:01:28;9.00;99.90
22540;DHT22;11436;50.860;4.334;2022-11-24T09:03:54;9.00;99.90
22540;DHT22;11436;50.860;4.334;2022-11-24T09:06:23;8.90;99.90
22540;DHT22;11436;50.860;4.334;2022-11-24T09:08:50;9.00;99.90
22540;DHT22;11436;50.860;4.334;2022-11-24T09:11:17;9.10;99.90
22540;DHT22;11436;50.860;4.334;2022-11-24T09:13:43;9.10;99.90
22540;DHT22;11436;50.860;4.334;2022-11-24T09:16:12;9.10;99.90
22540;DHT22;11436;50.860;4.334;2022-11-24T09:18:38;9.20;99.90
22540;DHT22;11436;50.860;4.334;2022-11-24T09:21:17;9.20;99.90
22540;DHT22;11436;50.860;4.334;2022-11-24T09:23:45;9.30;99.90
22540;DHT22;11436;50.860;4.334;2022-11-24T09:26:15;9.30;99.90
22540;DHT22;11436;50.860;4.334;2022-11-24T09:28:43;9.40;99.90
22540;DHT22;11436;50.860;4.334;2022-11-24T09:31:11;9.40;99.90
22540;DHT22;11436;50.860;4.334;2022-11-24T09:33:38;9.50;99.90
22540;DHT22;11436;50.860;4.334;2022-11-24T09:36:05;9.50;99.90
22540;DHT22;11436;50.860;4.334;2022-11-24T09:38:31;9.50;99.90
22540;DHT22;11436;50.860;4.334;2022-11-24T09:49:48;9.80;99.90
22540;DHT22;11436;50.860;4.334;2022-11-24T09:52:20;9.90;99.90
22540;DHT22;11436;50.860;4.334;2022-11-24T09:54:54;9.90;99.90
22540;DHT22;11436;50.860;4.334;2022-11-24T09:57:24;9.90;99.90
22540;DHT22;11436;50.860;4.334;2022-11-24T09:59:51;9.80;99.90
22540;DHT22;11436;50.860;4.334;2022-11-24T10:02:16;9.90;99.90
22540;DHT22;11436;50.860;4.334;2022-11-24T10:04:44;9.90;99.90
22540;DHT22;11436;50.860;4.334;2022-11-24T10:20:50;10.30;99.90
22540;DHT22;11436;50.860;4.334;2022-11-24T10:26:05;10.40;99.90
22540;DHT22;11436;50.860;4.334;2022-11-24T10:28:40;10.40;99.90
22540;DHT22;11436;50.860;4.334;2022-11-24T10:31:34;10.50;99.90
22540;DHT22;11436;50.860;4.334;2022-11-24T10:34:12;10.40;99.90
22540;DHT22;11436;50.860;4.334;2022-11-24T10:39:48;10.60;99.90
22540;DHT22;11436;50.860;4.334;2022-11-24T10:42:43;10.70;99.90
22540;DHT22;11436;50.860;4.334;2022-11-24T10:45:17;10.70;99.90
22540;DHT22;11436;50.860;4.334;2022-11-24T10:47:44;10.70;99.90
22540;DHT22;11436;50.860;4.334;2022-11-24T10:56:05;10.60;99.90
22540;DHT22;11436;50.860;4.334;2022-11-24T11:03:48;10.60;99.90
22540;DHT22;11436;50.860;4.334;2022-11-24T11:06:38;10.60;99.90
22540;DHT22;11436;50.860;4.334;2022-11-24T11:11:37;11.00;99.90
22540;DHT22;11436;50.860;4.334;2022-11-24T11:14:09;11.10;99.90
22540;DHT22;11436;50.860;4.334;2022-11-24T11:16:58;11.00;99.90
22540;DHT22;11436;50.860;4.334;2022-11-24T11:19:40;11.10;99.90
22540;DHT22;11436;50.860;4.334;2022-11-24T11:24:43;11.30;99.90
22540;DHT22;11436;50.860;4.334;2022-11-24T11:27:18;11.30;99.90
22540;DHT22;11436;50.860;4.334;2022-11-24T11:29:44;11.40;99.90
22540;DHT22;11436;50.860;4.334;2022-11-24T11:32:24;11.50;99.90
22540;DHT22;11436;50.860;4.334;2022-11-24T11:34:52;11.40;99.90
22540;DHT22;11436;50.860;4.334;2022-11-24T11:37:31;11.40;99.90
22540;DHT22;11436;50.860;4.334;2022-11-24T11:39:57;11.50;99.90
22540;DHT22;11436;50.860;4.334;2022-11-24T11:45:18;11.50;99.90
22540;DHT22;11436;50.860;4.334;2022-11-24T11:47:54;11.60;99.90
22540;DHT22;11436;50.860;4.334;2022-11-24T11:50:48;11.50;99.90
22540;DHT22;11436;50.860;4.334;2022-11-24T12:09:55;12.00;99.90
22540;DHT22;11436;50.860;4.334;2022-11-24T12:12:59;12.00;99.90
22540;DHT22;11436;50.860;4.334;2022-11-24T12:23:17;11.70;99.90
22540;DHT22;11436;50.860;4.334;2022-11-24T12:26:27;11.80;99.90
22540;DHT22;11436;50.860;4.334;2022-11-24T12:34:35;12.00;99.90
22540;DHT22;11436;50.860;4.334;2022-11-24T12:37:29;12.30;99.90
22540;DHT22;11436;50.860;4.334;2022-11-24T12:45:36;12.50;99.90
22540;DHT22;11436;50.860;4.334;2022-11-24T12:48:36;13.00;99.90
22540;DHT22;11436;50.860;4.334;2022-11-24T12:51:17;13.40;99.90
22540;DHT22;11436;50.860;4.334;2022-11-24T12:53:48;13.60;99.90
22540;DHT22;11436;50.860;4.334;2022-11-24T12:56:17;13.90;99.90
22540;DHT22;11436;50.860;4.334;2022-11-24T12:58:46;14.30;99.90
22540;DHT22;11436;50.860;4.334;2022-11-24T13:06:16;13.70;99.90
22540;DHT22;11436;50.860;4.334;2022-11-24T13:08:43;13.70;99.90
22540;DHT22;11436;50.860;4.334;2022-11-24T13:14:21;13.80;99.90
22540;DHT22;11436;50.860;4.334;2022-11-24T13:16:50;14.30;99.90
22540;DHT22;11436;50.860;4.334;2022-11-24T13:19:35;14.50;99.90
22540;DHT22;11436;50.860;4.334;2022-11-24T13:24:37;14.90;99.90
22540;DHT22;11436;50.860;4.334;2022-11-24T13:29:44;15.00;99.90
22540;DHT22;11436;50.860;4.334;2022-11-24T13:42:26;13.70;99.90
22540;DHT22;11436;50.860;4.334;2022-11-24T13:44:59;13.60;99.90
22540;DHT22;11436;50.860;4.334;2022-11-24T14:00:55;12.60;99.90
22540;DHT22;11436;50.860;4.334;2022-11-24T14:03:34;12.60;99.90
22540;DHT22;11436;50.860;4.334;2022-11-24T14:06:02;12.70;99.90
22540;DHT22;11436;50.860;4.334;2022-11-24T14:08:33;12.80;99.90
22540;DHT22;11436;50.860;4.334;2022-11-24T14:11:00;12.80;99.90
22540;DHT22;11436;50.860;4.334;2022-11-24T14:13:29;12.80;99.90
22540;DHT22;11436;50.860;4.334;2022-11-24T14:18:34;12.60;99.90
22540;DHT22;11436;50.860;4.334;2022-11-24T14:23:43;12.60;99.90
22540;DHT22;11436;50.860;4.334;2022-11-24T14:26:17;12.50;99.90
22540;DHT22;11436;50.860;4.334;2022-11-24T14:28:44;12.50;99.90
22540;DHT22;11436;50.860;4.334;2022-11-24T14:31:22;12.30;99.90
22540;DHT22;11436;50.860;4.334;2022-11-24T14:33:49;12.40;99.90
22540;DHT22;11436;50.860;4.334;2022-11-24T14:36:16;12.40;99.90
22540;DHT22;11436;50.860;4.334;2022-11-24T14:38:42;12.60;99.90
22540;DHT22;11436;50.860;4.334;2022-11-24T14:41:23;12.50;99.90
22540;DHT22;11436;50.860;4.334;2022-11-24T14:46:29;12.50;99.90
22540;DHT22;11436;50.860;4.334;2022-11-24T14:48:55;12.40;99.90
22540;DHT22;11436;50.860;4.334;2022-11-24T14:51:24;12.40;99.90
22540;DHT22;11436;50.860;4.334;2022-11-24T14:54:00;12.40;99.90
22540;DHT22;11436;50.860;4.334;2022-11-24T14:56:30;12.40;99.90
22540;DHT22;11436;50.860;4.334;2022-11-24T14:58:57;12.30;99.90
22540;DHT22;11436;50.860;4.334;2022-11-24T15:04:17;12.20;99.90
22540;DHT22;11436;50.860;4.334;2022-11-24T15:06:48;12.30;99.90
22540;DHT22;11436;50.860;4.334;2022-11-24T15:10:05;12.30;99.90
22540;DHT22;11436;50.860;4.334;2022-11-24T15:12:25;12.30;99.90
22540;DHT22;11436;50.860;4.334;2022-11-24T15:14:55;12.30;99.90
22540;DHT22;11436;50.860;4.334;2022-11-24T15:17:23;12.30;99.90
22540;DHT22;11436;50.860;4.334;2022-11-24T15:20:09;12.20;99.90
22540;DHT22;11436;50.860;4.334;2022-11-24T15:22:43;12.10;99.90
22540;DHT22;11436;50.860;4.334;2022-11-24T15:25:31;12.00;99.90
22540;DHT22;11436;50.860;4.334;2022-11-24T15:27:58;12.00;99.90
22540;DHT22;11436;50.860;4.334;2022-11-24T15:30:24;12.00;99.90
22540;DHT22;11436;50.860;4.334;2022-11-24T15:32:58;12.00;99.90
22540;DHT22;11436;50.860;4.334;2022-11-24T15:35:27;12.00;99.90
22540;DHT22;11436;50.860;4.334;2022-11-24T15:37:53;11.90;99.90
22540;DHT22;11436;50.860;4.334;2022-11-24T15:40:19;11.80;99.90
22540;DHT22;11436;50.860;4.334;2022-11-24T15:42:49;11.80;99.90
22540;DHT22;11436;50.860;4.334;2022-11-24T15:45:17;11.80;99.90
22540;DHT22;11436;50.860;4.334;2022-11-24T15:47:43;11.80;99.90
22540;DHT22;11436;50.860;4.334;2022-11-24T15:50:09;11.70;99.90
22540;DHT22;11436;50.860;4.334;2022-11-24T15:52:35;11.60;99.90
22540;DHT22;11436;50.860;4.334;2022-11-24T15:55:02;11.60;99.90
22540;DHT22;11436;50.860;4.334;2022-11-24T15:57:28;11.60;99.90
22540;DHT22;11436;50.860;4.334;2022-11-24T15:59:54;11.50;99.90
22540;DHT22;11436;50.860;4.334;2022-11-24T16:02:19;11.50;99.90
22540;DHT22;11436;50.860;4.334;2022-11-24T16:04:48;11.40;99.90
22540;DHT22;11436;50.860;4.334;2022-11-24T16:07:14;11.40;99.90
22540;DHT22;11436;50.860;4.334;2022-11-24T16:09:39;11.40;99.90
22540;DHT22;11436;50.860;4.334;2022-11-24T16:12:05;11.40;99.90
22540;DHT22;11436;50.860;4.334;2022-11-24T16:14:33;11.30;99.90
22540;DHT22;11436;50.860;4.334;2022-11-24T16:16:59;11.30;99.90
22540;DHT22;11436;50.860;4.334;2022-11-24T16:19:25;11.30;99.90
22540;DHT22;11436;50.860;4.334;2022-11-24T16:21:51;11.30;99.90
22540;DHT22;11436;50.860;4.334;2022-11-24T16:24:17;11.30;99.90
22540;DHT22;11436;50.860;4.334;2022-11-24T16:26:43;11.20;99.90
22540;DHT22;11436;50.860;4.334;2022-11-24T16:29:08;11.20;99.90
22540;DHT22;11436;50.860;4.334;2022-11-24T16:31:34;11.10;99.90
22540;DHT22;11436;50.860;4.334;2022-11-24T16:34:00;11.10;99.90
22540;DHT22;11436;50.860;4.334;2022-11-24T16:36:26;11.10;99.90
22540;DHT22;11436;50.860;4.334;2022-11-24T16:38:53;11.00;99.90
22540;DHT22;11436;50.860;4.334;2022-11-24T16:41:18;11.00;99.90
22540;DHT22;11436;50.860;4.334;2022-11-24T16:43:46;11.00;99.90
22540;DHT22;11436;50.860;4.334;2022-11-24T16:46:20;11.00;99.90
22540;DHT22;11436;50.860;4.334;2022-11-24T16:48:48;11.00;99.90
22540;DHT22;11436;50.860;4.334;2022-11-24T16:51:15;11.00;99.90
22540;DHT22;11436;50.860;4.334;2022-11-24T16:53:41;11.00;99.90
22540;DHT22;11436;50.860;4.334;2022-11-24T16:56:07;10.90;99.90
22540;DHT22;11436;50.860;4.334;2022-11-24T16:58:36;10.80;99.90
22540;DHT22;11436;50.860;4.334;2022-11-24T17:01:10;10.80;99.90
22540;DHT22;11436;50.860;4.334;2022-11-24T17:03:36;10.70;99.90
22540;DHT22;11436;50.860;4.334;2022-11-24T17:06:05;10.70;99.90
22540;DHT22;11436;50.860;4.334;2022-11-24T17:08:35;10.70;99.90
22540;DHT22;11436;50.860;4.334;2022-11-24T17:11:15;10.60;99.90
22540;DHT22;11436;50.860;4.334;2022-11-24T17:13:42;10.60;99.90
22540;DHT22;11436;50.860;4.334;2022-11-24T17:16:12;10.60;99.90
22540;DHT22;11436;50.860;4.334;2022-11-24T17:18:39;10.60;99.90
22540;DHT22;11436;50.860;4.334;2022-11-24T17:21:06;10.60;99.90
22540;DHT22;11436;50.860;4.334;2022-11-24T17:23:32;10.60;99.90
22540;DHT22;11436;50.860;4.334;2022-11-24T17:26:02;10.60;99.90
22540;DHT22;11436;50.860;4.334;2022-11-24T17:28:28;10.60;99.90
22540;DHT22;11436;50.860;4.334;2022-11-24T17:30:54;10.60;99.90
22540;DHT22;11436;50.860;4.334;2022-11-24T17:33:20;10.50;99.90
22540;DHT22;11436;50.860;4.334;2022-11-24T17:35:46;10.50;99.90
22540;DHT22;11436;50.860;4.334;2022-11-24T17:38:12;10.50;99.90
22540;DHT22;11436;50.860;4.334;2022-11-24T17:40:37;10.40;99.90
22540;DHT22;11436;50.860;4.334;2022-11-24T17:43:03;10.50;99.90
22540;DHT22;11436;50.860;4.334;2022-11-24T17:45:29;10.40;99.90
22540;DHT22;11436;50.860;4.334;2022-11-24T17:47:58;10.50;99.90
22540;DHT22;11436;50.860;4.334;2022-11-24T17:50:25;10.50;99.90
22540;DHT22;11436;50.860;4.334;2022-11-24T17:52:51;10.40;99.90
22540;DHT22;11436;50.860;4.334;2022-11-24T17:55:16;10.40;99.90
22540;DHT22;11436;50.860;4.334;2022-11-24T17:57:42;10.40;99.90
22540;DHT22;11436;50.860;4.334;2022-11-24T18:00:08;10.40;99.90
22540;DHT22;11436;50.860;4.334;2022-11-24T18:02:37;10.40;99.90
22540;DHT22;11436;50.860;4.334;2022-11-24T18:05:03;10.40;99.90
22540;DHT22;11436;50.860;4.334;2022-11-24T18:07:29;10.40;99.90